Time;durP1;ratioP1;P1;durP2;ratioP2;P2;SDS_P1;SDS_P2;PMS_P1;PMS_P2;Temp;Humidity;BMP_temperature;BMP_pressure;BME280_temperature;BME280_humidity;BME280_pressure;Samples;Min_cycle;Max_cycle;Signal;HPM_P1;HPM_P2
2021/07/09 00:01:28;;;;;;;6.40;5.80;;;17.70;99.90;;;;;;5016099;28;20453;-81
2021/07/09 00:03:57;;;;;;;10.00;5.00;;;17.70;99.90;;;;;;5017896;28;20373;-81
2021/07/09 00:06:27;;;;;;;5.07;4.60;;;17.70;99.90;;;;;;5015253;28;20414;-82
2021/07/09 00:08:56;;;;;;;5.90;5.40;;;17.70;99.90;;;;;;5033380;28;20786;-81
2021/07/09 00:11:24;;;;;;;6.00;5.13;;;17.70;99.90;;;;;;5017415;28;20400;-82
2021/07/09 00:13:54;;;;;;;5.63;4.57;;;17.70;99.90;;;;;;5017669;28;20377;-82
2021/07/09 00:16:22;;;;;;;5.27;4.77;;;17.70;99.90;;;;;;5033793;28;20453;-81
2021/07/09 00:18:51;;;;;;;6.70;5.33;;;17.70;99.90;;;;;;5013415;28;20397;-83
2021/07/09 00:21:23;;;;;;;6.07;5.03;;;17.70;99.90;;;;;;5009670;28;20456;-83
2021/07/09 00:23:54;;;;;;;6.20;4.60;;;17.80;99.90;;;;;;5008221;28;20404;-83
2021/07/09 00:26:22;;;;;;;6.20;3.63;;;17.70;99.90;;;;;;5007173;28;20421;-83
2021/07/09 00:28:51;;;;;;;5.13;4.63;;;17.70;99.90;;;;;;5014012;28;20420;-83
2021/07/09 00:31:19;;;;;;;5.10;4.70;;;17.80;99.90;;;;;;5014148;28;20424;-82
2021/07/09 00:33:48;;;;;;;4.63;3.90;;;17.80;99.90;;;;;;5013651;28;20843;-83
2021/07/09 00:36:17;;;;;;;4.13;3.83;;;17.90;99.90;;;;;;5009742;28;20443;-83
2021/07/09 00:38:46;;;;;;;6.30;3.80;;;17.90;99.90;;;;;;5008090;28;20419;-83
2021/07/09 00:41:30;;;;;;;4.93;4.47;;;17.80;99.90;;;;;;5008923;28;20425;-84
2021/07/09 00:43:59;;;;;;;8.10;4.70;;;17.90;99.90;;;;;;5004706;28;20412;-81
2021/07/09 00:46:32;;;;;;;5.27;4.43;;;17.80;99.90;;;;;;5006227;28;20426;-82
2021/07/09 00:49:00;;;;;;;5.17;4.70;;;17.80;99.90;;;;;;5006829;28;20388;-82
2021/07/09 00:51:29;;;;;;;8.00;4.10;;;17.80;99.90;;;;;;5006699;28;20516;-82
2021/07/09 00:53:58;;;;;;;4.23;3.83;;;17.70;99.90;;;;;;5007756;28;20675;-83
2021/07/09 00:56:28;;;;;;;15.30;4.60;;;17.70;99.90;;;;;;5005509;28;20416;-81
2021/07/09 00:58:59;;;;;;;8.00;4.90;;;17.70;99.90;;;;;;5004207;28;20525;-82
2021/07/09 01:01:28;;;;;;;5.70;4.60;;;17.70;99.90;;;;;;5003337;28;20790;-82
2021/07/09 01:03:57;;;;;;;6.20;5.60;;;17.70;99.90;;;;;;5003594;28;20908;-81
2021/07/09 01:06:25;;;;;;;5.40;4.07;;;17.70;99.90;;;;;;5003522;28;20408;-82
2021/07/09 01:08:54;;;;;;;4.97;4.57;;;17.70;99.90;;;;;;5002235;28;20828;-82
2021/07/09 01:11:24;;;;;;;5.43;4.87;;;17.70;99.90;;;;;;5002777;28;20775;-82
2021/07/09 01:13:53;;;;;;;4.87;4.47;;;17.70;99.90;;;;;;5002472;28;20541;-82
2021/07/09 01:16:23;;;;;;;5.77;4.63;;;17.70;99.90;;;;;;5000520;28;20416;-82
2021/07/09 01:18:52;;;;;;;4.70;4.30;;;17.70;99.90;;;;;;5002356;28;20414;-82
2021/07/09 01:21:21;;;;;;;5.63;5.20;;;17.80;99.90;;;;;;5003653;28;20978;-83
2021/07/09 01:23:57;;;;;;;4.60;4.10;;;17.70;99.90;;;;;;5018819;28;20426;-82
2021/07/09 01:26:27;;;;;;;6.80;4.83;;;17.70;99.90;;;;;;5004009;28;20478;-82
2021/07/09 01:29:19;;;;;;;4.80;4.40;;;17.70;99.90;;;;;;5003914;28;20414;-81
2021/07/09 01:31:49;;;;;;;4.33;4.03;;;17.70;99.90;;;;;;5010164;28;20965;-83
2021/07/09 01:38:24;;;;;;;4.63;4.23;;;17.70;99.90;;;;;;4967426;29;20425;-82
2021/07/09 01:52:54;;;;;;;4.60;4.30;;;17.60;99.90;;;;;;4969053;29;20434;-82
2021/07/09 02:02:41;;;;;;;4.83;3.87;;;17.60;99.90;;;;;;4962493;28;20424;-81
2021/07/09 02:05:22;;;;;;;6.30;4.10;;;17.60;99.90;;;;;;4967672;29;20702;-83
2021/07/09 02:07:56;;;;;;;6.50;4.27;;;17.60;99.90;;;;;;4964820;29;20421;-83
2021/07/09 02:10:26;;;;;;;5.13;4.53;;;17.60;99.90;;;;;;4959037;28;20457;-82
2021/07/09 02:12:56;;;;;;;4.77;4.37;;;17.60;99.90;;;;;;4964101;29;20466;-82
2021/07/09 02:15:26;;;;;;;5.40;4.80;;;17.60;99.90;;;;;;4989459;28;20409;-83
2021/07/09 02:17:56;;;;;;;5.03;4.63;;;17.70;99.90;;;;;;5002429;28;20385;-81
2021/07/09 02:20:27;;;;;;;5.27;4.87;;;17.70;99.90;;;;;;5017819;28;20475;-81
2021/07/09 02:22:57;;;;;;;4.97;4.30;;;17.70;99.90;;;;;;5002365;28;20829;-82
2021/07/09 02:25:25;;;;;;;4.10;3.70;;;17.70;99.90;;;;;;5005833;28;20418;-82
2021/07/09 02:27:56;;;;;;;6.43;4.70;;;17.60;99.90;;;;;;5007719;28;20797;-82
2021/07/09 02:31:14;;;;;;;5.50;5.07;;;17.70;99.90;;;;;;5006446;28;20449;-82
2021/07/09 02:33:44;;;;;;;4.60;3.70;;;17.70;99.90;;;;;;5014285;28;20463;-82
2021/07/09 02:36:12;;;;;;;5.63;5.13;;;17.80;99.90;;;;;;5000110;28;20422;-82
2021/07/09 02:38:41;;;;;;;5.60;4.07;;;17.90;99.90;;;;;;5002077;28;20517;-83
2021/07/09 02:41:10;;;;;;;6.60;4.03;;;17.90;99.90;;;;;;5006140;28;20461;-82
2021/07/09 02:43:39;;;;;;;5.73;3.83;;;18.00;99.90;;;;;;5006944;28;20410;-83
2021/07/09 02:46:07;;;;;;;3.73;3.43;;;18.20;99.90;;;;;;5005410;28;20402;-82
2021/07/09 02:48:36;;;;;;;6.33;3.60;;;18.30;99.90;;;;;;5021608;28;20521;-83
2021/07/09 02:51:06;;;;;;;4.33;3.93;;;18.20;99.90;;;;;;5006426;28;20450;-82
2021/07/09 02:53:35;;;;;;;4.47;4.07;;;18.20;99.90;;;;;;5006553;28;20889;-83
2021/07/09 02:56:04;;;;;;;5.90;4.73;;;18.20;99.90;;;;;;5006120;28;20509;-83
2021/07/09 02:58:32;;;;;;;4.17;3.63;;;18.10;99.90;;;;;;5006069;28;20477;-82
2021/07/09 03:01:01;;;;;;;5.57;5.00;;;18.00;99.90;;;;;;5005167;28;20429;-83
2021/07/09 03:03:31;;;;;;;4.00;3.60;;;18.00;99.90;;;;;;5005585;28;20393;-83
2021/07/09 03:05:59;;;;;;;5.73;4.20;;;17.90;99.90;;;;;;5006242;28;20433;-83
2021/07/09 03:08:29;;;;;;;4.07;3.67;;;17.80;99.90;;;;;;5007266;28;20699;-82
2021/07/09 03:10:57;;;;;;;4.13;3.83;;;17.80;99.90;;;;;;5006691;28;20442;-83
2021/07/09 03:13:26;;;;;;;5.60;4.33;;;17.70;99.90;;;;;;5006600;28;20443;-82
2021/07/09 03:15:55;;;;;;;4.50;4.10;;;17.70;99.90;;;;;;5009496;28;20400;-82
2021/07/09 03:18:23;;;;;;;5.23;3.87;;;17.80;99.90;;;;;;5007047;28;20414;-82
2021/07/09 03:20:54;;;;;;;5.23;4.73;;;17.80;99.90;;;;;;5006844;28;20451;-83
2021/07/09 03:23:23;;;;;;;4.87;4.00;;;17.80;99.90;;;;;;5005957;28;20456;-83
2021/07/09 03:25:52;;;;;;;6.00;5.27;;;17.70;99.90;;;;;;5021125;28;20413;-83
2021/07/09 03:28:21;;;;;;;4.93;4.53;;;17.70;99.90;;;;;;5008361;28;20814;-83
2021/07/09 03:30:50;;;;;;;4.97;4.57;;;17.70;99.90;;;;;;5008560;28;20517;-82
2021/07/09 03:33:19;;;;;;;5.53;5.03;;;17.70;99.90;;;;;;5012481;28;20549;-83
2021/07/09 03:35:47;;;;;;;5.13;4.63;;;17.70;99.90;;;;;;5010155;28;20413;-82
2021/07/09 03:38:16;;;;;;;4.67;4.27;;;17.60;99.90;;;;;;5006557;28;20461;-82
2021/07/09 03:40:44;;;;;;;5.13;4.70;;;17.60;99.90;;;;;;5086377;22;20490;-82
2021/07/09 03:43:13;;;;;;;6.40;4.43;;;17.60;99.90;;;;;;5061189;28;20413;-82
2021/07/09 03:45:42;;;;;;;7.40;5.30;;;17.70;99.90;;;;;;5057759;28;20512;-81
2021/07/09 03:48:10;;;;;;;5.77;5.17;;;17.60;99.90;;;;;;5058542;28;20428;-80
2021/07/09 03:50:38;;;;;;;7.17;5.33;;;17.60;99.90;;;;;;5059005;28;20462;-81
2021/07/09 03:53:07;;;;;;;4.87;4.37;;;17.60;99.90;;;;;;5067555;28;20417;-82
2021/07/09 03:55:35;;;;;;;5.20;4.53;;;17.60;99.90;;;;;;5066768;28;20933;-81
2021/07/09 03:58:04;;;;;;;8.70;5.30;;;17.70;99.90;;;;;;5072424;28;20386;-79
2021/07/09 04:00:33;;;;;;;5.13;4.73;;;17.70;99.90;;;;;;5065424;28;20436;-79
2021/07/09 04:03:25;;;;;;;;;;;;;;;;;;;;;
2021/07/09 04:06:11;;;;;;;7.60;4.97;;;17.60;99.90;;;;;;5072815;28;20429;-78
2021/07/09 04:08:39;;;;;;;4.80;4.40;;;17.60;99.90;;;;;;5072290;28;20443;-80
2021/07/09 04:11:07;;;;;;;6.70;6.03;;;17.60;99.90;;;;;;5070513;28;20417;-81
2021/07/09 04:13:35;;;;;;;5.17;4.60;;;17.50;99.90;;;;;;5068568;28;20438;-81
2021/07/09 04:16:05;;;;;;;6.10;5.50;;;17.50;99.90;;;;;;5060287;28;20501;-79
2021/07/09 04:18:34;;;;;;;8.00;6.43;;;17.50;99.90;;;;;;5059542;28;20410;-81
2021/07/09 04:21:02;;;;;;;6.07;5.40;;;17.50;99.90;;;;;;5058704;28;20518;-81
2021/07/09 04:23:31;;;;;;;7.93;5.57;;;17.50;99.90;;;;;;5058664;28;20406;-81
2021/07/09 04:25:59;;;;;;;4.87;4.30;;;17.50;99.90;;;;;;5057922;28;20427;-81
2021/07/09 04:28:27;;;;;;;15.40;6.87;;;17.50;99.90;;;;;;5057041;28;20406;-81
2021/07/09 04:30:55;;;;;;;6.00;5.40;;;17.50;99.90;;;;;;5058305;28;20431;-81
2021/07/09 04:33:25;;;;;;;6.17;5.57;;;17.40;99.90;;;;;;5057467;28;20439;-81
2021/07/09 04:35:53;;;;;;;5.83;5.33;;;17.40;99.90;;;;;;5056319;28;20435;-81
2021/07/09 04:38:21;;;;;;;12.73;5.50;;;17.40;99.90;;;;;;5056664;28;20414;-81
2021/07/09 04:40:49;;;;;;;7.27;6.53;;;17.40;99.90;;;;;;5056528;28;20732;-81
2021/07/09 04:43:17;;;;;;;7.53;6.10;;;17.30;99.90;;;;;;5056787;28;20429;-80
2021/07/09 04:45:46;;;;;;;9.40;7.30;;;17.30;99.90;;;;;;5056753;28;20484;-81
2021/07/09 04:48:14;;;;;;;6.17;5.57;;;17.20;99.90;;;;;;5056502;28;20472;-81
2021/07/09 04:50:44;;;;;;;7.83;6.17;;;17.20;99.90;;;;;;5058308;28;20441;-81
2021/07/09 04:53:12;;;;;;;6.83;6.23;;;17.20;99.90;;;;;;5061119;28;20402;-78
2021/07/09 04:55:40;;;;;;;8.97;6.50;;;17.20;99.90;;;;;;5065393;28;20466;-77
2021/07/09 04:58:08;;;;;;;8.47;7.47;;;17.20;99.90;;;;;;5066499;28;20471;-77
2021/07/09 05:00:36;;;;;;;7.53;6.87;;;17.20;99.90;;;;;;5063907;28;20524;-77
2021/07/09 05:03:04;;;;;;;7.80;7.10;;;17.20;99.90;;;;;;5058221;28;20554;-80
2021/07/09 05:05:33;;;;;;;6.90;6.27;;;17.20;99.90;;;;;;5057505;28;20386;-81
2021/07/09 05:08:02;;;;;;;8.80;7.80;;;17.20;99.90;;;;;;5056477;28;20413;-80
2021/07/09 05:10:30;;;;;;;8.50;7.70;;;17.20;99.90;;;;;;5057159;28;20458;-80
2021/07/09 05:12:58;;;;;;;7.80;6.97;;;17.20;99.90;;;;;;5057678;28;20398;-82
2021/07/09 05:15:27;;;;;;;7.50;6.70;;;17.20;99.90;;;;;;5057528;28;20496;-81
2021/07/09 05:17:55;;;;;;;8.33;7.17;;;17.20;99.90;;;;;;5055438;28;20431;-80
2021/07/09 05:20:23;;;;;;;8.50;7.73;;;17.20;99.90;;;;;;5057616;28;20421;-80
2021/07/09 05:22:51;;;;;;;7.90;7.30;;;17.20;99.90;;;;;;5055446;28;20450;-81
2021/07/09 05:25:21;;;;;;;9.67;7.77;;;17.20;99.90;;;;;;5055248;28;20440;-80
2021/07/09 05:27:49;;;;;;;14.30;9.87;;;17.20;99.90;;;;;;5057317;28;20394;-79
2021/07/09 05:30:17;;;;;;;8.70;7.57;;;17.20;99.90;;;;;;5055420;28;20433;-81
2021/07/09 05:32:46;;;;;;;10.30;8.93;;;17.20;99.90;;;;;;5056139;28;20447;-80
2021/07/09 05:35:15;;;;;;;10.20;9.10;;;17.20;99.90;;;;;;5057139;28;20447;-81
2021/07/09 05:37:44;;;;;;;8.73;7.70;;;17.30;99.90;;;;;;5057334;28;20382;-81
2021/07/09 05:40:13;;;;;;;8.20;7.50;;;17.30;99.90;;;;;;5063898;28;20462;-81
2021/07/09 05:42:44;;;;;;;13.80;9.00;;;17.30;99.90;;;;;;5064962;28;20444;-79
2021/07/09 05:45:12;;;;;;;11.27;8.47;;;17.40;99.90;;;;;;5065383;28;20398;-80
2021/07/09 05:47:41;;;;;;;11.70;9.97;;;17.40;99.90;;;;;;5063881;28;20406;-77
2021/07/09 05:50:10;;;;;;;12.40;8.40;;;17.40;99.90;;;;;;5058854;28;20473;-77
2021/07/09 05:52:38;;;;;;;10.00;8.90;;;17.40;99.90;;;;;;5061213;28;20405;-78
2021/07/09 05:55:07;;;;;;;10.60;9.60;;;17.50;99.90;;;;;;5060364;28;20452;-79
2021/07/09 05:57:35;;;;;;;10.33;9.27;;;17.50;99.90;;;;;;5060789;28;20802;-78
2021/07/09 06:00:07;;;;;;;13.13;10.47;;;17.50;99.90;;;;;;5061312;28;20437;-77
2021/07/09 06:02:35;;;;;;;9.57;8.43;;;17.60;99.90;;;;;;5063727;28;20495;-77
2021/07/09 06:05:03;;;;;;;12.13;8.70;;;17.60;99.90;;;;;;5062657;28;20916;-79
2021/07/09 06:07:32;;;;;;;10.73;9.17;;;17.60;99.90;;;;;;5063323;28;20462;-79
2021/07/09 06:10:03;;;;;;;11.33;10.17;;;17.60;99.90;;;;;;5064670;28;20441;-78
2021/07/09 06:12:31;;;;;;;9.93;8.77;;;17.70;99.90;;;;;;5062733;28;20559;-80
2021/07/09 06:15:00;;;;;;;10.40;9.50;;;17.70;99.90;;;;;;5057718;28;20971;-78
2021/07/09 06:17:29;;;;;;;13.60;8.97;;;17.70;99.90;;;;;;5059387;28;20415;-79
2021/07/09 06:19:57;;;;;;;10.40;9.30;;;17.70;99.90;;;;;;5074016;28;20410;-77
2021/07/09 06:22:25;;;;;;;12.90;11.37;;;17.70;99.90;;;;;;5079397;28;20423;-77
2021/07/09 06:24:53;;;;;;;13.07;11.00;;;17.70;99.90;;;;;;5079952;28;20411;-77
2021/07/09 06:27:22;;;;;;;12.63;10.47;;;17.70;99.90;;;;;;5078412;28;20473;-77
2021/07/09 06:29:50;;;;;;;13.30;10.60;;;17.70;99.90;;;;;;5078780;28;20410;-76
2021/07/09 06:32:18;;;;;;;11.23;10.13;;;17.70;99.90;;;;;;5079691;28;20390;-77
2021/07/09 06:34:47;;;;;;;11.87;10.57;;;17.80;99.90;;;;;;5079299;28;20439;-76
2021/07/09 06:37:16;;;;;;;12.70;10.30;;;17.80;99.90;;;;;;5064255;28;20417;-79
2021/07/09 06:39:44;;;;;;;10.57;9.67;;;17.80;99.90;;;;;;5057811;28;20437;-78
2021/07/09 06:42:12;;;;;;;11.07;9.37;;;17.90;99.90;;;;;;5054766;28;20410;-80
2021/07/09 06:44:40;;;;;;;10.80;9.80;;;17.80;99.90;;;;;;5054608;28;20416;-78
2021/07/09 06:47:08;;;;;;;11.43;10.23;;;17.90;99.90;;;;;;5054067;28;20435;-78
2021/07/09 06:49:36;;;;;;;12.43;11.10;;;17.90;99.90;;;;;;5054378;28;20444;-78
2021/07/09 06:52:07;;;;;;;11.27;10.07;;;17.90;99.90;;;;;;5093473;28;20420;-77
2021/07/09 06:54:35;;;;;;;10.77;9.83;;;17.90;99.90;;;;;;5095187;28;20427;-80
2021/07/09 06:57:03;;;;;;;12.10;10.57;;;17.90;99.90;;;;;;5078637;28;20417;-75
2021/07/09 06:59:31;;;;;;;13.90;12.27;;;17.90;99.90;;;;;;5077940;28;20497;-77
2021/07/09 07:01:59;;;;;;;14.57;12.73;;;17.90;99.90;;;;;;5076275;28;20465;-78
2021/07/09 07:04:27;;;;;;;13.90;12.50;;;17.90;99.90;;;;;;5075492;28;20755;-77
2021/07/09 07:06:56;;;;;;;12.03;10.77;;;17.90;99.90;;;;;;5076800;28;20407;-77
2021/07/09 07:09:26;;;;;;;13.20;11.90;;;17.90;99.90;;;;;;5094018;28;20420;-77
2021/07/09 07:11:54;;;;;;;14.93;11.90;;;18.00;99.90;;;;;;5078143;28;20427;-77
2021/07/09 07:14:22;;;;;;;13.30;12.00;;;18.00;99.90;;;;;;5078656;28;20872;-78
2021/07/09 07:16:50;;;;;;;15.20;13.60;;;18.00;99.90;;;;;;5078738;28;20430;-78
2021/07/09 07:19:18;;;;;;;12.57;11.30;;;18.20;99.90;;;;;;5077859;28;20426;-78
2021/07/09 07:21:47;;;;;;;15.13;12.70;;;18.20;99.90;;;;;;5077607;28;20477;-77
2021/07/09 07:24:15;;;;;;;13.50;12.03;;;18.10;99.90;;;;;;5078370;28;20405;-78
2021/07/09 07:26:45;;;;;;;16.70;12.23;;;18.10;99.90;;;;;;5071677;28;20464;-81
2021/07/09 07:29:13;;;;;;;14.43;11.27;;;18.10;99.90;;;;;;5059670;28;20434;-80
2021/07/09 07:31:41;;;;;;;13.77;11.93;;;18.20;99.90;;;;;;5077811;28;20469;-81
2021/07/09 07:34:10;;;;;;;13.43;12.07;;;18.30;99.90;;;;;;5076036;28;20439;-81
2021/07/09 07:36:38;;;;;;;14.40;12.90;;;18.30;99.90;;;;;;5059895;28;20471;-84
2021/07/09 07:39:07;;;;;;;14.30;13.00;;;18.40;99.90;;;;;;5058985;28;20447;-86
2021/07/09 07:41:36;;;;;;;13.97;12.47;;;18.50;99.90;;;;;;5075807;28;20447;-85
2021/07/09 07:44:06;;;;;;;15.83;14.27;;;18.60;99.90;;;;;;5083454;28;20479;-84
2021/07/09 07:46:35;;;;;;;14.00;12.50;;;18.70;99.90;;;;;;5056447;28;20418;-85
2021/07/09 07:49:03;;;;;;;14.03;12.47;;;18.70;99.90;;;;;;5055697;28;20637;-86
2021/07/09 07:51:31;;;;;;;15.53;13.37;;;18.70;99.90;;;;;;5063808;28;20404;-87
2021/07/09 07:54:00;;;;;;;14.80;13.30;;;18.70;99.90;;;;;;5077918;28;20410;-87
2021/07/09 07:56:28;;;;;;;15.77;14.27;;;18.80;99.90;;;;;;5067069;28;20439;-87
2021/07/09 07:58:56;;;;;;;15.13;13.53;;;18.90;99.90;;;;;;5091281;28;20433;-86
2021/07/09 08:01:30;;;;;;;15.13;13.43;;;18.90;99.90;;;;;;5070842;28;20427;-79
2021/07/09 08:03:58;;;;;;;13.70;12.17;;;19.00;99.90;;;;;;5072046;28;20410;-78
2021/07/09 08:06:27;;;;;;;14.80;12.70;;;19.10;99.90;;;;;;5074933;28;20477;-84
2021/07/09 08:08:55;;;;;;;12.83;11.57;;;19.30;99.90;;;;;;5077841;28;20445;-81
2021/07/09 08:11:23;;;;;;;14.23;12.87;;;19.20;99.90;;;;;;5078239;28;20436;-82
2021/07/09 08:13:52;;;;;;;12.90;11.60;;;19.20;99.90;;;;;;5060989;28;20439;-80
2021/07/09 08:16:21;;;;;;;13.70;12.40;;;19.20;99.90;;;;;;5035552;28;20473;-80
2021/07/09 08:18:51;;;;;;;12.10;10.80;;;19.10;99.90;;;;;;5053335;28;20554;-81
2021/07/09 08:21:19;;;;;;;14.67;13.27;;;19.10;99.90;;;;;;5036440;28;20433;-82
2021/07/09 08:23:47;;;;;;;13.77;12.47;;;19.30;99.90;;;;;;5037600;28;20391;-83
2021/07/09 08:26:15;;;;;;;14.47;12.57;;;19.40;99.90;;;;;;5035483;28;20546;-82
2021/07/09 08:28:43;;;;;;;12.20;10.93;;;19.50;99.90;;;;;;5053564;28;20510;-82
2021/07/09 08:31:12;;;;;;;13.10;11.87;;;19.70;99.90;;;;;;5058879;28;20422;-84
2021/07/09 08:33:40;;;;;;;10.30;9.40;;;19.80;99.90;;;;;;5062751;28;20410;-88
2021/07/09 08:36:10;;;;;;;16.80;10.70;;;19.80;99.90;;;;;;5060665;28;20859;-85
2021/07/09 08:38:38;;;;;;;10.47;9.40;;;19.80;99.90;;;;;;5060050;28;20398;-86
2021/07/09 08:41:06;;;;;;;10.30;9.20;;;19.70;99.90;;;;;;5060079;28;20415;-82
2021/07/09 08:43:34;;;;;;;11.43;10.43;;;19.60;99.90;;;;;;5057703;28;20471;-85
2021/07/09 08:46:03;;;;;;;12.53;11.33;;;19.60;99.90;;;;;;5057870;28;20401;-81
2021/07/09 08:48:38;;;;;;;11.73;10.50;;;19.50;99.90;;;;;;5071648;28;20431;-81
2021/07/09 08:51:06;;;;;;;11.30;10.20;;;19.60;99.90;;;;;;5057214;28;20394;-80
2021/07/09 08:53:38;;;;;;;10.43;9.37;;;19.60;99.90;;;;;;5057465;28;20462;-79
2021/07/09 08:56:07;;;;;;;10.27;9.37;;;19.80;99.90;;;;;;5056220;28;21004;-80
2021/07/09 08:58:36;;;;;;;11.90;10.33;;;19.80;99.90;;;;;;5055772;28;20485;-88
2021/07/09 09:01:05;;;;;;;10.87;9.80;;;19.80;99.90;;;;;;5058558;28;20414;-80
2021/07/09 09:03:34;;;;;;;11.20;10.10;;;19.80;99.90;;;;;;5059803;28;20461;-81
2021/07/09 09:06:02;;;;;;;10.63;9.53;;;19.90;99.90;;;;;;5058495;28;20435;-86
2021/07/09 09:08:34;;;;;;;10.63;9.57;;;19.80;99.90;;;;;;5058076;28;20946;-82
2021/07/09 09:11:04;;;;;;;12.27;11.07;;;19.70;99.90;;;;;;5058766;28;20809;-83
2021/07/09 09:13:34;;;;;;;13.50;11.10;;;19.60;99.90;;;;;;5074556;28;20422;-81
2021/07/09 09:16:05;;;;;;;11.60;10.50;;;19.60;99.90;;;;;;5057663;28;20881;-81
2021/07/09 09:18:37;;;;;;;12.07;11.07;;;19.80;99.90;;;;;;5057109;28;20849;-82
2021/07/09 09:21:08;;;;;;;12.00;10.77;;;20.00;99.90;;;;;;5059884;28;20486;-81
2021/07/09 09:23:38;;;;;;;10.93;9.67;;;20.10;99.90;;;;;;5063290;28;20435;-78
2021/07/09 09:26:08;;;;;;;10.97;10.07;;;20.30;99.90;;;;;;5070594;28;20446;-79
2021/07/09 09:28:38;;;;;;;9.70;8.80;;;20.30;99.90;;;;;;5071651;28;20430;-80
2021/07/09 09:31:07;;;;;;;11.03;9.63;;;20.30;99.90;;;;;;5071282;28;20484;-79
2021/07/09 09:33:36;;;;;;;10.27;9.43;;;20.10;99.90;;;;;;5053084;28;20435;-80
2021/07/09 09:36:08;;;;;;;11.70;10.50;;;20.20;99.90;;;;;;5053438;28;20445;-80
2021/07/09 09:38:37;;;;;;;11.87;10.77;;;20.10;99.90;;;;;;5056055;28;20637;-82
2021/07/09 09:41:09;;;;;;;11.13;10.03;;;20.00;99.90;;;;;;5079546;22;21024;-84
2021/07/09 09:43:38;;;;;;;20.10;10.90;;;19.90;99.90;;;;;;5054286;28;20471;-85
2021/07/09 09:46:09;;;;;;;10.53;9.33;;;19.90;99.90;;;;;;5025521;28;21024;-85
2021/07/09 09:48:44;;;;;;;10.83;9.83;;;19.80;99.90;;;;;;5041083;28;20424;-85
2021/07/09 09:51:29;;;;;;;11.40;10.40;;;19.80;99.90;;;;;;5025596;28;20454;-86
2021/07/09 09:53:59;;;;;;;9.90;9.10;;;19.90;99.90;;;;;;5042267;28;20415;-84
2021/07/09 09:56:40;;;;;;;10.23;9.23;;;20.00;99.90;;;;;;5040532;28;20459;-85
2021/07/09 09:59:28;;;;;;;10.70;9.80;;;20.20;99.90;;;;;;5042338;28;20403;-85
2021/07/09 10:01:58;;;;;;;10.23;9.33;;;20.40;99.90;;;;;;5024083;28;20456;-83
2021/07/09 10:04:28;;;;;;;12.03;9.70;;;20.50;99.90;;;;;;5042676;28;20838;-84
2021/07/09 10:06:57;;;;;;;13.77;10.70;;;20.50;99.90;;;;;;5042927;28;20462;-84
2021/07/09 10:09:27;;;;;;;12.87;11.13;;;20.60;99.90;;;;;;5023784;28;20904;-83
2021/07/09 10:11:56;;;;;;;13.87;11.00;;;20.60;99.90;;;;;;5041267;28;20398;-83
2021/07/09 10:14:27;;;;;;;13.00;11.87;;;20.50;99.90;;;;;;5041466;28;20423;-83
2021/07/09 10:17:00;;;;;;;10.43;9.53;;;20.30;99.90;;;;;;5041198;28;21025;-83
2021/07/09 10:19:38;;;;;;;13.47;12.17;;;20.30;99.90;;;;;;5041361;28;20419;-83
2021/07/09 10:22:26;;;;;;;12.60;11.40;;;20.30;99.90;;;;;;5025793;28;20402;-83
2021/07/09 10:24:56;;;;;;;13.00;11.60;;;20.20;99.90;;;;;;5042103;28;20765;-84
2021/07/09 10:27:26;;;;;;;12.03;11.03;;;20.00;99.90;;;;;;5043955;28;20417;-85
2021/07/09 10:29:58;;;;;;;10.80;9.70;;;20.00;99.90;;;;;;5050944;28;20444;-83
2021/07/09 10:32:31;;;;;;;12.57;11.27;;;20.00;99.90;;;;;;5031646;28;20833;-83
2021/07/09 10:35:00;;;;;;;12.20;10.90;;;20.10;99.90;;;;;;5049276;28;20416;-85
2021/07/09 10:37:29;;;;;;;11.40;10.20;;;20.10;99.90;;;;;;5042598;28;20457;-83
2021/07/09 10:40:10;;;;;;;12.50;11.30;;;20.10;99.90;;;;;;5042319;28;20430;-83
2021/07/09 10:42:40;;;;;;;11.83;10.67;;;20.10;99.90;;;;;;5043134;28;20439;-84
2021/07/09 10:45:15;;;;;;;12.23;11.13;;;20.10;99.90;;;;;;5029136;28;20731;-84
2021/07/09 10:47:53;;;;;;;14.70;10.83;;;20.00;99.90;;;;;;5041578;28;20821;-83
2021/07/09 10:50:44;;;;;;;11.23;10.00;;;20.00;99.90;;;;;;5044487;28;20429;-84
2021/07/09 10:53:25;;;;;;;12.60;11.27;;;20.00;99.90;;;;;;5025997;28;20437;-83
2021/07/09 10:55:57;;;;;;;11.20;10.20;;;20.00;99.90;;;;;;5042724;28;20779;-84
2021/07/09 10:58:44;;;;;;;10.70;9.60;;;20.00;99.90;;;;;;5043808;28;20451;-85
2021/07/09 11:01:21;;;;;;;13.60;11.90;;;19.80;99.90;;;;;;5043144;28;20414;-84
2021/07/09 11:04:07;;;;;;;14.30;11.17;;;19.70;99.90;;;;;;5044230;28;20419;-83
2021/07/09 11:06:43;;;;;;;11.23;10.17;;;19.70;99.90;;;;;;5044234;28;20436;-84
2021/07/09 11:09:16;;;;;;;11.47;10.33;;;19.70;99.90;;;;;;5044040;28;20463;-83
2021/07/09 11:11:50;;;;;;;12.20;11.10;;;19.90;99.90;;;;;;5043856;28;20463;-84
2021/07/09 11:14:33;;;;;;;12.70;11.50;;;19.80;99.90;;;;;;5045666;28;20410;-85
2021/07/09 11:17:16;;;;;;;10.67;9.60;;;19.50;99.90;;;;;;5043526;28;20880;-83
2021/07/09 11:19:50;;;;;;;13.80;10.17;;;19.40;99.90;;;;;;5043733;28;20432;-84
2021/07/09 11:22:18;;;;;;;12.57;10.40;;;19.30;99.90;;;;;;5022399;28;20451;-85
2021/07/09 11:24:53;;;;;;;14.07;12.60;;;19.30;99.90;;;;;;5039053;28;20428;-84
2021/07/09 11:27:27;;;;;;;11.93;10.73;;;19.30;99.90;;;;;;5039664;28;20469;-83
2021/07/09 11:30:01;;;;;;;10.23;9.13;;;19.40;99.90;;;;;;5039542;28;20492;-82
2021/07/09 11:32:36;;;;;;;12.93;11.30;;;19.40;99.90;;;;;;5040446;28;20956;-84
2021/07/09 11:35:06;;;;;;;12.40;11.17;;;19.40;99.90;;;;;;5025498;28;20402;-83
2021/07/09 11:37:36;;;;;;;16.47;10.90;;;19.40;99.90;;;;;;5038961;28;20434;-82
2021/07/09 11:40:07;;;;;;;12.80;11.60;;;19.50;99.90;;;;;;5038707;28;20453;-84
2021/07/09 11:42:37;;;;;;;13.47;12.07;;;19.50;99.90;;;;;;5041823;28;20420;-84
2021/07/09 11:45:07;;;;;;;12.90;11.60;;;19.50;99.90;;;;;;5042349;28;20802;-85
2021/07/09 11:47:38;;;;;;;15.60;10.60;;;19.40;99.90;;;;;;5042335;28;20411;-85
2021/07/09 11:50:12;;;;;;;13.23;11.80;;;19.50;99.90;;;;;;5041819;28;20438;-84
2021/07/09 11:52:41;;;;;;;13.53;12.13;;;19.50;99.90;;;;;;5043562;28;20416;-84
2021/07/09 11:55:12;;;;;;;12.70;11.40;;;19.50;99.90;;;;;;5050805;28;20421;-83
2021/07/09 11:57:41;;;;;;;10.90;9.97;;;19.60;99.90;;;;;;5024794;28;20510;-83
2021/07/09 12:00:12;;;;;;;13.30;11.27;;;19.60;99.90;;;;;;5049227;28;20456;-82
2021/07/09 12:02:44;;;;;;;14.27;12.07;;;19.70;99.90;;;;;;5030537;28;20437;-83
2021/07/09 12:05:14;;;;;;;11.47;10.47;;;19.80;99.90;;;;;;5024671;28;20395;-82
2021/07/09 12:07:44;;;;;;;13.40;9.17;;;19.80;99.90;;;;;;5041975;28;20428;-83
2021/07/09 12:10:14;;;;;;;9.10;8.30;;;19.90;99.90;;;;;;5045160;28;20394;-84
2021/07/09 12:12:45;;;;;;;18.63;8.00;;;20.00;99.90;;;;;;5040836;28;20527;-83
2021/07/09 12:15:16;;;;;;;8.27;7.07;;;20.10;99.90;;;;;;5040787;28;20465;-84
2021/07/09 12:17:48;;;;;;;8.20;7.33;;;20.20;99.90;;;;;;5043848;28;20508;-85
2021/07/09 12:20:22;;;;;;;8.60;7.70;;;20.30;99.90;;;;;;5043583;28;20457;-84
2021/07/09 12:22:55;;;;;;;8.40;7.23;;;20.40;99.90;;;;;;5043392;28;20412;-84
2021/07/09 12:25:25;;;;;;;7.53;6.83;;;20.60;99.90;;;;;;5043365;28;20416;-84
2021/07/09 12:27:55;;;;;;;9.60;6.90;;;20.60;99.90;;;;;;5046157;28;20384;-84
2021/07/09 12:30:25;;;;;;;8.27;7.43;;;20.50;99.90;;;;;;5048002;28;20444;-83
2021/07/09 12:32:57;;;;;;;8.00;7.20;;;20.40;99.90;;;;;;5050257;28;20436;-85
2021/07/09 12:35:42;;;;;;;10.13;8.50;;;20.50;99.90;;;;;;5056703;28;20445;-84
2021/07/09 12:38:11;;;;;;;12.57;9.77;;;20.60;99.90;;;;;;5057610;28;20453;-84
2021/07/09 12:40:42;;;;;;;9.10;7.57;;;20.70;99.90;;;;;;5057097;28;20466;-85
2021/07/09 12:43:20;;;;;;;9.97;8.97;;;20.90;99.90;;;;;;5056448;28;20398;-84
2021/07/09 12:45:57;;;;;;;11.67;10.47;;;21.00;99.90;;;;;;5052211;28;20413;-84
2021/07/09 12:48:37;;;;;;;10.50;9.40;;;21.10;99.90;;;;;;5044807;28;20527;-85
2021/07/09 12:51:16;;;;;;;11.03;8.73;;;21.20;99.90;;;;;;5042770;28;20965;-83
2021/07/09 12:53:52;;;;;;;8.80;8.00;;;21.20;99.90;;;;;;5045217;28;20436;-85
2021/07/09 12:56:21;;;;;;;10.27;9.27;;;21.10;99.90;;;;;;5023449;28;20824;-84
2021/07/09 12:58:57;;;;;;;9.90;9.00;;;21.00;99.90;;;;;;5041423;28;20443;-83
2021/07/09 13:01:26;;;;;;;10.53;9.47;;;21.10;99.90;;;;;;5025526;28;20424;-85
2021/07/09 13:03:55;;;;;;;10.50;9.00;;;21.20;99.90;;;;;;5005817;28;20420;-84
2021/07/09 13:06:29;;;;;;;11.90;9.70;;;21.40;99.90;;;;;;5007586;28;21009;-84
2021/07/09 13:09:14;;;;;;;11.97;8.73;;;21.80;99.90;;;;;;5025088;28;21012;-84
2021/07/09 13:11:44;;;;;;;8.30;7.47;;;21.90;99.90;;;;;;5009414;28;20437;-83
2021/07/09 13:14:21;;;;;;;8.43;7.63;;;22.20;99.90;;;;;;5024909;28;20429;-83
2021/07/09 13:16:51;;;;;;;10.40;8.00;;;22.40;99.90;;;;;;5023277;28;20496;-83
2021/07/09 13:19:33;;;;;;;13.40;9.63;;;22.40;99.90;;;;;;5021517;28;20462;-85